Time;durP1;ratioP1;P1;durP2;ratioP2;P2;SDS_P1;SDS_P2;PMS_P1;PMS_P2;Temp;Humidity;BMP_temperature;BMP_pressure;BME280_temperature;BME280_humidity;BME280_pressure;Samples;Min_cycle;Max_cycle;Signal;HPM_P1;HPM_P2
2023/07/18 00:00:47;;;;;;;3.35;3.05;;;;;;;23.33;100.00;98071.63;1224491;75;2923450;-68
2023/07/18 00:03:20;;;;;;;2.60;2.40;;;;;;;23.44;100.00;98067.00;1223974;75;2920305;-67
2023/07/18 00:05:52;;;;;;;3.65;1.90;;;;;;;23.41;100.00;98068.13;1225197;75;2929024;-67
2023/07/18 00:08:25;;;;;;;2.30;2.10;;;;;;;23.47;100.00;98066.63;1224373;75;2920419;-67
2023/07/18 00:10:57;;;;;;;3.90;2.65;;;;;;;23.48;100.00;98079.31;1224399;75;2937637;-67
2023/07/18 00:13:33;;;;;;;3.60;3.10;;;;;;;22.98;100.00;98078.75;1223939;75;2931045;-67
2023/07/18 00:16:06;;;;;;;4.05;3.45;;;;;;;22.44;100.00;98075.63;1223959;75;2929376;-66
2023/07/18 00:18:38;;;;;;;3.75;3.40;;;;;;;22.52;100.00;98072.88;1223961;75;2925213;-67
2023/07/18 00:21:13;;;;;;;3.50;3.20;;;;;;;22.90;100.00;98075.16;1224307;75;2922270;-65
2023/07/18 00:23:46;;;;;;;3.55;3.25;;;;;;;22.75;100.00;98064.63;1224268;75;2926201;-68
2023/07/18 00:26:20;;;;;;;5.25;3.90;;;;;;;22.54;100.00;98061.91;1224246;75;2924837;-69
2023/07/18 00:28:56;;;;;;;5.65;3.50;;;;;;;22.90;100.00;98052.81;1224007;75;2930419;-67
2023/07/18 00:31:28;;;;;;;3.05;2.75;;;;;;;22.82;100.00;98047.19;1224148;75;2944567;-68
2023/07/18 00:34:02;;;;;;;2.70;2.50;;;;;;;22.90;100.00;98039.59;1222591;75;2934626;-67
2023/07/18 00:36:35;;;;;;;2.95;2.20;;;;;;;22.89;100.00;98028.97;1224225;75;2925665;-64
2023/07/18 00:39:07;;;;;;;3.55;2.80;;;;;;;22.62;100.00;98031.28;1224272;75;2922424;-67
2023/07/18 00:41:40;;;;;;;3.85;3.45;;;;;;;22.49;100.00;98027.28;1224613;75;2917654;-67
2023/07/18 00:44:15;;;;;;;2.90;2.60;;;;;;;22.77;100.00;98025.75;1224457;75;2923488;-65
2023/07/18 00:46:48;;;;;;;2.75;2.50;;;;;;;22.45;100.00;98024.09;1224054;75;2926788;-65
2023/07/18 00:49:21;;;;;;;3.05;2.75;;;;;;;22.54;100.00;98034.03;1223813;75;2923707;-67
2023/07/18 00:51:54;;;;;;;2.45;2.10;;;;;;;22.65;100.00;98030.91;1224252;75;2921962;-67
2023/07/18 00:54:27;;;;;;;2.20;2.00;;;;;;;22.61;100.00;98033.31;1224686;75;2915683;-68
2023/07/18 00:56:59;;;;;;;1.75;1.65;;;;;;;22.64;100.00;98034.25;1224614;75;2923370;-69
2023/07/18 00:59:36;;;;;;;2.00;1.90;;;;;;;22.58;100.00;98039.97;1223617;75;2922225;-67
2023/07/18 01:02:09;;;;;;;2.05;1.85;;;;;;;22.56;100.00;98039.78;1224228;75;2921547;-66
2023/07/18 01:04:42;;;;;;;1.90;1.65;;;;;;;22.50;100.00;98039.94;1224620;75;2926980;-66
2023/07/18 01:07:15;;;;;;;1.65;1.55;;;;;;;22.42;100.00;98030.78;1224562;75;2925565;-68
2023/07/18 01:09:48;;;;;;;2.50;1.85;;;;;;;22.38;100.00;98024.78;1224710;75;2926918;-66
2023/07/18 01:12:21;;;;;;;2.00;1.80;;;;;;;22.39;100.00;98015.13;1224441;75;2924706;-68
2023/07/18 01:14:56;;;;;;;2.55;2.30;;;;;;;21.84;100.00;98012.47;1224387;75;2917705;-65
2023/07/18 01:17:28;;;;;;;2.75;2.50;;;;;;;22.06;100.00;98008.38;1224747;75;2924888;-68
2023/07/18 01:20:01;;;;;;;3.85;2.55;;;;;;;22.08;100.00;98011.34;1224268;75;2926731;-68
2023/07/18 01:22:36;;;;;;;2.95;2.60;;;;;;;22.12;100.00;98008.97;1224203;75;2926958;-66
2023/07/18 01:25:11;;;;;;;2.90;2.10;;;;;;;22.06;100.00;98019.53;1223909;75;2922457;-65
2023/07/18 01:27:44;;;;;;;3.95;3.10;;;;;;;21.51;100.00;98034.28;1223956;75;2929596;-64
2023/07/18 01:30:19;;;;;;;5.35;4.30;;;;;;;21.35;100.00;98040.94;1224440;75;2921368;-69
2023/07/18 01:32:52;;;;;;;5.80;4.40;;;;;;;21.37;100.00;98041.91;1223962;75;2918943;-66
2023/07/18 01:35:27;;;;;;;6.70;4.75;;;;;;;21.39;100.00;98042.13;1223232;75;2925196;-65
2023/07/18 01:38:03;;;;;;;5.30;4.80;;;;;;;21.44;100.00;98049.63;1223814;75;2920685;-68
2023/07/18 01:40:36;;;;;;;5.15;4.65;;;;;;;21.72;100.00;98041.91;1223748;75;2938423;-67
2023/07/18 01:43:08;;;;;;;4.05;3.15;;;;;;;21.87;100.00;98040.00;1223500;75;2928158;-66
2023/07/18 01:45:41;;;;;;;3.05;2.60;;;;;;;21.99;100.00;98040.47;1223852;75;2921837;-66
2023/07/18 01:48:13;;;;;;;3.10;2.80;;;;;;;22.03;100.00;98037.34;1223802;83;2920642;-66
2023/07/18 01:50:46;;;;;;;2.70;2.50;;;;;;;22.11;100.00;98027.00;1223935;75;2926367;-65
2023/07/18 01:53:21;;;;;;;2.45;2.25;;;;;;;22.05;100.00;98029.91;1223793;75;2921709;-67
2023/07/18 01:55:54;;;;;;;2.10;1.90;;;;;;;22.19;100.00;98038.22;1224379;75;2925855;-66
2023/07/18 01:58:27;;;;;;;2.60;2.40;;;;;;;22.05;100.00;98038.28;1224744;75;2920697;-66
2023/07/18 02:01:00;;;;;;;3.55;2.45;;;;;;;22.11;100.00;98044.47;1223703;75;2935153;-67
2023/07/18 02:03:32;;;;;;;2.25;2.05;;;;;;;22.09;100.00;98041.47;1223803;83;2925667;-65
2023/07/18 02:06:05;;;;;;;2.25;1.70;;;;;;;22.22;100.00;98048.28;1224380;75;2917546;-70
2023/07/18 02:08:40;;;;;;;2.10;1.90;;;;;;;22.20;100.00;98048.06;1224181;75;2932463;-65
2023/07/18 02:11:13;;;;;;;1.95;1.80;;;;;;;22.09;100.00;98041.47;1224363;75;2925008;-66
2023/07/18 02:13:46;;;;;;;1.85;1.50;;;;;;;22.17;100.00;98043.59;1223346;75;2923429;-67
2023/07/18 02:16:18;;;;;;;2.00;1.80;;;;;;;22.12;100.00;98048.75;1224418;75;2923232;-66
2023/07/18 02:18:51;;;;;;;2.30;2.10;;;;;;;22.06;100.00;98059.31;1223392;75;2935195;-67
2023/07/18 02:21:23;;;;;;;2.30;2.10;;;;;;;22.11;100.00;98052.09;1224134;75;2921342;-66
2023/07/18 02:23:58;;;;;;;2.90;2.50;;;;;;;21.84;100.00;98055.03;1223770;75;2931839;-67
2023/07/18 02:26:31;;;;;;;3.10;2.80;;;;;;;21.77;100.00;98054.94;1222566;75;2925245;-68
2023/07/18 02:29:04;;;;;;;3.40;2.80;;;;;;;21.58;100.00;98046.78;1219335;75;3194167;-66
2023/07/18 02:31:37;;;;;;;4.75;2.90;;;;;;;21.79;100.00;98052.38;1223887;75;2934950;-69
2023/07/18 02:34:10;;;;;;;3.05;2.50;;;;;;;22.05;100.00;98045.91;1223814;75;2924462;-68
2023/07/18 02:36:43;;;;;;;3.50;2.20;;;;;;;22.18;100.00;98059.03;1223964;75;2919881;-66
2023/07/18 02:39:19;;;;;;;1.90;1.80;;;;;;;22.16;100.00;98054.00;1224285;75;2920830;-67
2023/07/18 02:41:51;;;;;;;2.20;2.00;;;;;;;22.04;100.00;98066.72;1223635;75;2922456;-67
2023/07/18 02:44:24;;;;;;;2.65;2.45;;;;;;;22.07;100.00;98065.63;1223787;75;2918489;-64
2023/07/18 02:46:56;;;;;;;3.75;2.50;;;;;;;22.05;100.00;98063.38;1223390;75;2931124;-66
2023/07/18 02:49:29;;;;;;;3.20;2.90;;;;;;;21.86;100.00;98065.63;1223928;75;2921705;-65
2023/07/18 02:52:01;;;;;;;4.15;2.70;;;;;;;22.00;100.00;98061.47;1223000;75;2923756;-67
2023/07/18 02:54:37;;;;;;;2.60;2.40;;;;;;;21.98;100.00;98066.09;1223845;75;2921471;-65
2023/07/18 02:57:10;;;;;;;3.60;3.25;;;;;;;21.65;100.00;98065.63;1223395;75;2935470;-67
2023/07/18 02:59:42;;;;;;;4.30;3.90;;;;;;;21.64;100.00;98064.84;1223752;75;2929316;-67
2023/07/18 03:02:15;;;;;;;4.70;3.75;;;;;;;21.61;100.00;98060.38;1224105;75;2939060;-66
2023/07/18 03:04:51;;;;;;;4.15;3.65;;;;;;;21.78;100.00;98056.47;1223472;75;2925501;-66
2023/07/18 03:07:24;;;;;;;6.05;4.85;;;;;;;21.61;100.00;98059.63;1223117;75;2982702;-66
2023/07/18 03:09:59;;;;;;;5.00;4.20;;;;;;;21.79;100.00;98061.50;1223972;75;2923656;-68
2023/07/18 03:12:32;;;;;;;7.00;4.85;;;;;;;21.57;100.00;98059.22;1223852;75;2931288;-67
2023/07/18 03:15:04;;;;;;;4.20;3.80;;;;;;;21.68;100.00;98059.72;1224381;75;2925761;-68
2023/07/18 03:17:37;;;;;;;4.35;3.95;;;;;;;21.70;100.00;98056.38;1224280;83;2923085;-67
2023/07/18 03:20:16;;;;;;;5.05;4.35;;;;;;;21.56;100.00;98058.47;1224291;75;2926378;-66
2023/07/18 03:22:50;;;;;;;3.90;3.50;;;;;;;21.97;100.00;98062.56;1224028;75;2926449;-67
2023/07/18 03:25:26;;;;;;;5.05;4.45;;;;;;;21.56;100.00;98075.19;1222614;75;2922681;-68
2023/07/18 03:27:58;;;;;;;5.40;4.20;;;;;;;21.84;100.00;98071.00;1222726;75;2977848;-69
2023/07/18 03:30:31;;;;;;;3.95;3.45;;;;;;;21.88;100.00;98069.38;1221790;75;2948151;-69
2023/07/18 03:33:04;;;;;;;3.90;3.15;;;;;;;22.03;100.00;98074.34;1224156;75;2920182;-66
2023/07/18 03:35:36;;;;;;;3.40;3.10;;;;;;;21.85;100.00;98075.28;1224466;75;2929610;-67
2023/07/18 03:38:09;;;;;;;3.25;2.95;;;;;;;22.07;100.00;98080.31;1223771;75;2923853;-67
2023/07/18 03:40:45;;;;;;;2.90;2.70;;;;;;;22.19;100.00;98074.47;1224185;75;2922365;-67
2023/07/18 03:43:17;;;;;;;3.25;2.95;;;;;;;21.95;100.00;98072.78;1223821;75;2923262;-67
2023/07/18 03:45:51;;;;;;;3.55;3.20;;;;;;;22.16;100.00;98072.78;1223592;75;2930398;-68
2023/07/18 03:48:26;;;;;;;3.00;2.70;;;;;;;22.24;100.00;98073.59;1223263;75;2923022;-67
2023/07/18 03:50:59;;;;;;;2.60;2.40;;;;;;;22.33;100.00;98075.91;1224109;75;2928154;-67
2023/07/18 03:53:31;;;;;;;2.10;1.90;;;;;;;22.25;100.00;98075.84;1222459;75;2924663;-66
2023/07/18 03:56:11;;;;;;;2.60;2.30;;;;;;;22.36;100.00;98076.84;1222922;75;2928785;-68
2023/07/18 03:58:44;;;;;;;1.85;1.75;;;;;;;22.38;100.00;98080.59;1223455;75;2919095;-65
2023/07/18 04:01:16;;;;;;;2.35;2.10;;;;;;;22.36;100.00;98082.44;1224760;75;2919233;-67
2023/07/18 04:03:49;;;;;;;1.85;1.75;;;;;;;22.43;100.00;98084.53;1224194;75;2926797;-68
2023/07/18 04:06:22;;;;;;;1.70;1.60;;;;;;;22.46;100.00;98077.84;1223121;75;2926348;-65
2023/07/18 04:08:54;;;;;;;2.60;2.30;;;;;;;22.28;100.00;98080.34;1223553;75;2933685;-67
2023/07/18 04:11:29;;;;;;;2.95;1.90;;;;;;;22.36;100.00;98088.75;1223623;75;2926296;-68
2023/07/18 04:14:02;;;;;;;2.55;2.20;;;;;;;22.28;100.00;98093.53;1223819;75;2923014;-68
2023/07/18 04:16:35;;;;;;;1.80;1.70;;;;;;;22.32;100.00;98086.31;1223243;75;2928114;-65
2023/07/18 04:19:08;;;;;;;3.70;2.95;;;;;;;22.33;100.00;98089.84;1222658;75;2929010;-66
2023/07/18 04:21:40;;;;;;;2.10;1.90;;;;;;;22.49;100.00;98083.09;1223683;75;2929828;-68
2023/07/18 04:24:13;;;;;;;3.05;2.55;;;;;;;22.61;100.00;98082.78;1223272;75;2931903;-68
2023/07/18 04:26:49;;;;;;;4.35;3.90;;;;;;;22.44;100.00;98086.00;1223844;75;2924916;-67
2023/07/18 04:29:21;;;;;;;5.50;4.30;;;;;;;22.45;100.00;98087.53;1224049;75;2923864;-66
2023/07/18 04:31:54;;;;;;;5.60;4.65;;;;;;;22.50;100.00;98086.63;1222784;75;2927932;-67
2023/07/18 04:34:27;;;;;;;5.75;4.05;;;;;;;22.59;100.00;98086.13;1224338;75;2931777;-69
2023/07/18 04:37:00;;;;;;;4.40;4.00;;;;;;;22.52;100.00;98089.63;1224004;75;2921735;-68
2023/07/18 04:39:33;;;;;;;5.70;4.30;;;;;;;22.74;100.00;98094.59;1223342;75;2916886;-69
2023/07/18 04:42:08;;;;;;;5.55;4.85;;;;;;;22.61;100.00;98094.72;1224097;75;2931078;-66
2023/07/18 04:44:41;;;;;;;5.10;4.45;;;;;;;22.71;100.00;98094.97;1224483;75;2921627;-65
2023/07/18 04:47:14;;;;;;;6.40;4.50;;;;;;;22.93;100.00;98101.97;1223566;75;2927400;-68
2023/07/18 04:49:46;;;;;;;6.60;4.10;;;;;;;23.05;100.00;98099.63;1223913;75;2924933;-67
2023/07/18 04:52:19;;;;;;;5.90;3.95;;;;;;;23.12;100.00;98104.50;1224209;75;2923385;-68
2023/07/18 04:54:51;;;;;;;4.55;3.70;;;;;;;23.32;100.00;98103.66;1223712;75;2925985;-65
2023/07/18 04:57:27;;;;;;;5.10;4.35;;;;;;;23.23;100.00;98109.00;1224035;75;2926802;-69
2023/07/18 04:59:59;;;;;;;14.30;5.50;;;;;;;23.21;100.00;98108.81;1223841;75;2929864;-68
2023/07/18 05:02:32;;;;;;;4.55;3.65;;;;;;;23.47;100.00;98105.75;1223362;75;2926543;-68
2023/07/18 05:05:05;;;;;;;3.35;3.05;;;;;;;23.76;100.00;98100.84;1224536;75;2922872;-67
2023/07/18 05:07:38;;;;;;;6.65;3.90;;;;;;;23.49;100.00;98108.75;1224063;75;2940225;-67
2023/07/18 05:10:11;;;;;;;4.75;4.00;;;;;;;23.47;100.00;98111.34;1223642;75;2921217;-67
2023/07/18 05:12:47;;;;;;;5.70;3.35;;;;;;;23.60;100.00;98110.47;1204635;75;4061545;-69
2023/07/18 05:15:19;;;;;;;3.65;3.25;;;;;;;23.91;100.00;98110.53;1221212;75;2923239;-67
2023/07/18 05:17:53;;;;;;;3.60;2.70;;;;;;;24.00;100.00;98102.38;1222380;75;2886154;-68
2023/07/18 05:20:25;;;;;;;2.90;2.60;;;;;;;24.14;100.00;98118.97;1215116;75;2985651;-65
2023/07/18 05:22:59;;;;;;;3.10;2.30;;;;;;;24.31;100.00;98118.41;1220990;75;2910447;-67
2023/07/18 05:25:32;;;;;;;4.95;3.40;;;;;;;24.07;100.00;98126.03;1222764;75;2938279;-67
2023/07/18 05:28:07;;;;;;;5.40;3.90;;;;;;;23.78;100.00;98122.63;1206877;75;3475051;-67
2023/07/18 05:30:40;;;;;;;4.00;3.40;;;;;;;24.24;100.00;98119.91;1202477;75;3794992;-66
2023/07/18 05:33:15;;;;;;;3.10;2.80;;;;;;;24.42;100.00;98126.44;1219468;75;2982907;-66
2023/07/18 05:35:48;;;;;;;3.30;3.00;;;;;;;24.03;100.00;98131.28;1208719;75;3204985;-67
2023/07/18 05:38:21;;;;;;;3.85;3.40;;;;;;;23.94;100.00;98137.41;1223968;75;2846143;-70
2023/07/18 05:40:53;;;;;;;5.00;3.60;;;;;;;23.94;100.00;98135.34;1224321;75;2930422;-65
2023/07/18 05:43:30;;;;;;;5.15;4.00;;;;;;;23.97;100.00;98136.28;1223558;75;2924477;-69
2023/07/18 05:46:02;;;;;;;3.55;3.20;;;;;;;24.29;100.00;98126.63;1224774;75;2920023;-69
2023/07/18 05:48:35;;;;;;;4.05;3.55;;;;;;;24.09;100.00;98131.09;1223418;75;2919814;-67
2023/07/18 05:51:08;;;;;;;6.45;4.20;;;;;;;23.69;100.00;98129.50;1223577;75;2936069;-67
2023/07/18 05:53:40;;;;;;;5.30;4.55;;;;;;;23.42;100.00;98136.66;1222042;75;2973131;-67
2023/07/18 05:56:13;;;;;;;4.60;4.20;;;;;;;23.68;100.00;98135.63;1223155;75;2950221;-68
2023/07/18 05:58:48;;;;;;;4.85;4.35;;;;;;;23.60;100.00;98141.94;1223245;75;2918250;-67
2023/07/18 06:01:21;;;;;;;8.80;5.15;;;;;;;23.25;100.00;98137.88;1223599;75;2926897;-69
2023/07/18 06:03:54;;;;;;;4.70;4.25;;;;;;;23.42;100.00;98140.19;1223541;75;2922529;-69
2023/07/18 06:06:27;;;;;;;8.70;5.25;;;;;;;23.56;100.00;98138.03;1223085;75;2928816;-68
2023/07/18 06:08:59;;;;;;;4.55;4.15;;;;;;;24.13;100.00;98142.66;1223988;75;2929245;-67
2023/07/18 06:11:32;;;;;;;4.30;3.90;;;;;;;24.25;100.00;98149.38;1223235;75;2919546;-66
2023/07/18 06:14:08;;;;;;;5.30;4.35;;;;;;;23.94;100.00;98148.59;1223274;75;2919076;-66
2023/07/18 06:16:40;;;;;;;5.20;4.70;;;;;;;23.92;100.00;98148.41;1223775;75;2944434;-65
2023/07/18 06:19:13;;;;;;;4.95;4.45;;;;;;;24.10;100.00;98144.53;1224076;75;2920087;-67
2023/07/18 06:21:45;;;;;;;5.20;4.20;;;;;;;24.22;100.00;98140.06;1223290;75;2923944;-66
2023/07/18 06:24:18;;;;;;;4.90;4.40;;;;;;;24.37;100.00;98141.38;1223945;75;2927680;-68
2023/07/18 06:26:51;;;;;;;4.50;3.75;;;;;;;24.91;100.00;98141.34;1223863;75;2928695;-68
2023/07/18 06:29:27;;;;;;;6.60;4.65;;;;;;;24.58;100.00;98141.19;1223218;75;2927875;-65
2023/07/18 06:32:00;;;;;;;5.50;4.45;;;;;;;25.04;100.00;98139.09;1223806;75;2943675;-67
2023/07/18 06:34:40;;;;;;;5.40;4.20;;;;;;;25.03;100.00;98148.03;1223061;75;2923511;-67
2023/07/18 06:37:12;;;;;;;6.70;4.55;;;;;;;25.03;100.00;98154.38;1223832;75;2920105;-68
2023/07/18 06:39:45;;;;;;;4.65;4.05;;;;;;;25.20;100.00;98147.47;1223897;75;2929647;-67
2023/07/18 06:42:18;;;;;;;4.75;4.20;;;;;;;25.22;100.00;98148.38;1223696;75;2938606;-66
2023/07/18 06:44:53;;;;;;;4.30;3.65;;;;;;;25.60;100.00;98155.16;1223922;75;2929792;-66
2023/07/18 06:47:26;;;;;;;4.05;3.60;;;;;;;25.71;100.00;98155.50;1224084;75;2927124;-68
2023/07/18 06:49:58;;;;;;;6.70;4.25;;;;;;;25.59;100.00;98160.03;1224114;75;2939306;-67
2023/07/18 06:52:31;;;;;;;4.45;4.00;;;;;;;25.75;100.00;98154.34;1224912;75;2921351;-67
2023/07/18 06:55:03;;;;;;;5.35;4.55;;;;;;;25.50;100.00;98160.63;1224340;75;2919153;-70
2023/07/18 06:57:36;;;;;;;4.80;4.00;;;;;;;26.16;100.00;98155.81;1225342;75;2923043;-68
2023/07/18 07:00:14;;;;;;;4.50;3.20;;;;;;;26.35;100.00;98161.66;1224379;75;2920522;-66
2023/07/18 07:02:46;;;;;;;4.10;3.70;;;;;;;26.30;99.70;98168.22;1224635;75;2925646;-65
2023/07/18 07:05:19;;;;;;;5.00;3.65;;;;;;;26.60;94.92;98168.59;1224251;75;2922961;-69
2023/07/18 07:07:52;;;;;;;5.95;3.60;;;;;;;26.61;96.71;98162.41;1224679;75;2924236;-66
2023/07/18 07:10:25;;;;;;;4.00;3.60;;;;;;;26.55;94.00;98157.03;1223667;75;2928075;-68
2023/07/18 07:12:57;;;;;;;3.45;2.85;;;;;;;27.30;91.79;98149.75;1223256;75;2926189;-67
2023/07/18 07:15:33;;;;;;;3.80;2.95;;;;;;;26.98;93.62;98145.75;1224139;75;2922435;-67
2023/07/18 07:18:06;;;;;;;5.20;4.35;;;;;;;27.06;95.51;98142.88;1224006;75;2921938;-68
2023/07/18 07:20:39;;;;;;;3.80;3.40;;;;;;;26.84;90.13;98150.22;1224181;75;2924757;-68
2023/07/18 07:23:11;;;;;;;3.60;3.30;;;;;;;27.18;88.25;98146.69;1223439;75;2924388;-67
2023/07/18 07:25:45;;;;;;;4.05;3.30;;;;;;;27.05;87.49;98147.00;1223250;75;2927631;-69
2023/07/18 07:28:19;;;;;;;4.95;3.40;;;;;;;27.05;89.21;98144.19;1223836;75;2932029;-66
2023/07/18 07:30:54;;;;;;;4.90;3.35;;;;;;;27.17;88.33;98148.00;1224452;75;2922101;-66
2023/07/18 07:33:27;;;;;;;4.35;3.35;;;;;;;27.19;87.79;98142.56;1223954;75;2921909;-69
2023/07/18 07:35:59;;;;;;;4.45;3.75;;;;;;;27.25;87.18;98139.50;1223597;75;2924684;-68
2023/07/18 07:38:32;;;;;;;4.35;3.50;;;;;;;26.99;84.76;98144.47;1223681;75;2925729;-67
2023/07/18 07:41:04;;;;;;;6.25;3.50;;;;;;;27.24;81.43;98152.09;1224029;75;2921459;-68
2023/07/18 07:43:37;;;;;;;5.20;3.05;;;;;;;27.51;80.72;98152.88;1224040;75;2921652;-67
2023/07/18 07:46:12;;;;;;;4.20;3.45;;;;;;;27.59;81.09;98150.72;1223840;75;2928651;-66
2023/07/18 07:48:45;;;;;;;4.15;3.60;;;;;;;27.47;82.51;98146.16;1223534;75;2931286;-66
2023/07/18 07:51:18;;;;;;;3.45;3.15;;;;;;;27.54;82.67;98145.34;1223523;75;2928161;-66
2023/07/18 07:53:50;;;;;;;4.85;3.70;;;;;;;27.53;82.31;98147.41;1224222;75;2922490;-67
2023/07/18 07:56:23;;;;;;;5.55;3.70;;;;;;;27.93;84.40;98140.00;1224666;75;2923416;-69
2023/07/18 07:58:55;;;;;;;5.15;3.75;;;;;;;27.78;85.65;98146.53;1224385;75;2923996;-67
2023/07/18 08:01:31;;;;;;;4.35;3.40;;;;;;;27.78;83.77;98147.28;1223643;75;2928412;-68
2023/07/18 08:04:04;;;;;;;4.30;3.80;;;;;;;27.90;84.94;98141.13;1223909;75;2923724;-66
2023/07/18 08:06:36;;;;;;;4.30;3.80;;;;;;;27.46;82.33;98142.63;1223726;75;2920235;-67
2023/07/18 08:09:09;;;;;;;3.70;3.40;;;;;;;27.60;83.66;98140.94;1223606;83;2923363;-69
2023/07/18 08:11:41;;;;;;;4.20;3.70;;;;;;;27.81;82.82;98140.47;1223307;75;2924750;-70
2023/07/18 08:14:14;;;;;;;6.00;3.55;;;;;;;27.43;79.17;98143.78;1223319;75;2934168;-68
2023/07/18 08:16:49;;;;;;;4.10;3.70;;;;;;;27.45;80.50;98143.97;1223009;75;2920659;-67
2023/07/18 08:19:22;;;;;;;6.25;4.00;;;;;;;27.39;79.01;98140.66;1224294;75;2931540;-68
2023/07/18 08:21:56;;;;;;;5.70;3.80;;;;;;;27.57;78.80;98144.94;1224104;75;2932574;-67
2023/07/18 08:24:29;;;;;;;4.50;3.60;;;;;;;27.89;76.59;98148.84;1223475;75;2936474;-67
2023/07/18 08:27:02;;;;;;;6.45;3.40;;;;;;;28.19;74.84;98138.44;1224334;75;2915310;-69
2023/07/18 08:29:36;;;;;;;3.90;3.10;;;;;;;28.10;76.32;98134.28;1223299;75;2933863;-67
2023/07/18 08:32:12;;;;;;;3.55;3.25;;;;;;;28.36;77.11;98140.44;1223747;75;2925999;-68
2023/07/18 08:34:45;;;;;;;3.80;3.25;;;;;;;28.39;73.63;98140.00;1223832;75;2918403;-67
2023/07/18 08:37:17;;;;;;;3.60;3.30;;;;;;;28.76;73.30;98142.78;1222951;75;2943446;-69
2023/07/18 08:39:50;;;;;;;5.80;4.00;;;;;;;27.95;76.10;98132.44;1224072;75;2925497;-67
2023/07/18 08:42:27;;;;;;;4.20;3.30;;;;;;;28.07;79.59;98140.31;1223637;75;2925636;-68
2023/07/18 08:45:03;;;;;;;4.60;3.50;;;;;;;28.45;77.07;98134.88;1223554;75;2930809;-69
2023/07/18 08:47:40;;;;;;;4.55;3.40;;;;;;;28.28;77.00;98139.81;1224340;75;2928677;-66
2023/07/18 08:50:14;;;;;;;4.70;4.30;;;;;;;28.08;73.91;98145.38;1224908;75;2924856;-67
2023/07/18 08:52:47;;;;;;;5.00;3.70;;;;;;;28.63;71.55;98146.78;1223669;75;2937022;-68
2023/07/18 08:55:21;;;;;;;3.35;3.05;;;;;;;29.21;70.15;98136.94;1223525;75;2924119;-66
2023/07/18 08:57:54;;;;;;;4.70;3.50;;;;;;;28.93;71.12;98130.66;1223675;75;2921259;-65
2023/07/18 09:00:27;;;;;;;3.90;3.25;;;;;;;29.11;71.67;98142.56;1223667;75;2924660;-65
2023/07/18 09:03:02;;;;;;;4.60;3.40;;;;;;;29.07;66.86;98142.25;1223912;75;2925571;-67
2023/07/18 09:05:38;;;;;;;4.90;3.75;;;;;;;29.22;67.42;98139.13;1223547;75;2922090;-66
2023/07/18 09:08:11;;;;;;;4.90;3.45;;;;;;;29.33;67.04;98140.63;1223917;75;2923330;-66
2023/07/18 09:10:45;;;;;;;4.40;3.35;;;;;;;29.05;69.11;98133.63;1223933;75;2922772;-67
2023/07/18 09:13:18;;;;;;;3.80;3.30;;;;;;;29.54;69.67;98128.75;1224331;75;2923824;-68
2023/07/18 09:15:51;;;;;;;3.90;3.05;;;;;;;29.53;68.73;98127.25;1223753;75;2920728;-69
2023/07/18 09:18:27;;;;;;;4.80;3.45;;;;;;;29.61;69.88;98125.00;1223515;75;2926441;-66
2023/07/18 09:21:00;;;;;;;3.50;3.05;;;;;;;29.95;70.33;98120.34;1223684;75;2938188;-67
2023/07/18 09:23:41;;;;;;;5.15;2.90;;;;;;;30.35;69.90;98116.78;1223343;75;2958382;-67
2023/07/18 09:26:17;;;;;;;4.15;3.50;;;;;;;30.29;69.02;98109.97;1220009;75;3041707;-68
2023/07/18 09:28:51;;;;;;;4.60;3.60;;;;;;;29.62;68.73;98118.03;1223786;75;2923860;-67
2023/07/18 09:31:26;;;;;;;3.90;3.50;;;;;;;30.01;68.85;98108.72;1223940;75;2925294;-66
2023/07/18 09:34:01;;;;;;;4.85;4.00;;;;;;;29.34;66.12;98113.91;1223557;75;2926751;-67
2023/07/18 09:36:34;;;;;;;4.15;3.40;;;;;;;29.58;64.98;98114.16;1223770;75;2923308;-67
2023/07/18 09:39:09;;;;;;;4.90;3.80;;;;;;;29.75;64.91;98101.97;1223408;75;2939820;-68
2023/07/18 09:41:42;;;;;;;3.25;2.85;;;;;;;30.04;64.86;98101.88;1223582;75;2924931;-67
2023/07/18 09:44:17;;;;;;;3.50;3.00;;;;;;;30.53;64.90;98093.91;1223793;75;2929913;-69
2023/07/18 09:46:49;;;;;;;4.35;3.40;;;;;;;30.40;64.37;98095.16;1223368;75;2924777;-65
2023/07/18 09:49:25;;;;;;;3.95;3.30;;;;;;;29.37;69.23;98104.28;1223638;75;2917555;-65
2023/07/18 09:52:05;;;;;;;3.65;3.10;;;;;;;29.63;68.21;98082.81;1223630;75;2924974;-66
2023/07/18 09:54:38;;;;;;;4.35;2.85;;;;;;;30.70;65.38;98071.03;1224169;75;2930630;-68
2023/07/18 09:57:12;;;;;;;4.35;3.40;;;;;;;30.52;66.64;98073.41;1224667;75;2923631;-68
2023/07/18 09:59:45;;;;;;;3.55;3.15;;;;;;;30.59;67.21;98068.88;1223968;75;2922051;-67
2023/07/18 10:02:18;;;;;;;4.90;3.70;;;;;;;30.38;65.89;98071.69;1223266;75;2929041;-67
2023/07/18 10:04:53;;;;;;;4.25;3.50;;;;;;;30.38;66.88;98061.16;1223817;75;2924305;-67
2023/07/18 10:07:26;;;;;;;4.95;3.30;;;;;;;30.45;66.30;98076.41;1224123;75;2927492;-69
2023/07/18 10:09:59;;;;;;;4.40;3.60;;;;;;;29.76;69.20;98064.69;1223979;75;2923574;-67
2023/07/18 10:12:37;;;;;;;3.95;3.55;;;;;;;30.28;68.05;98066.09;1223789;75;2929329;-67
2023/07/18 10:15:10;;;;;;;4.55;3.65;;;;;;;30.84;64.51;98057.13;1223320;75;2926301;-68
2023/07/18 10:17:44;;;;;;;4.80;4.00;;;;;;;30.34;65.02;98072.91;1224564;75;2925224;-65
2023/07/18 10:20:25;;;;;;;4.10;3.60;;;;;;;30.58;64.79;98059.66;1223673;75;2928004;-68
2023/07/18 10:23:02;;;;;;;4.40;3.30;;;;;;;30.51;64.06;98052.13;1223554;75;2929098;-69
2023/07/18 10:25:35;;;;;;;3.95;3.30;;;;;;;31.08;63.16;98049.47;1223973;75;2941571;-67
2023/07/18 10:28:09;;;;;;;3.85;3.30;;;;;;;30.92;64.56;98046.34;1223619;75;2935181;-70
2023/07/18 10:30:42;;;;;;;3.80;3.45;;;;;;;31.26;64.05;98041.41;1223588;75;2923210;-67
2023/07/18 10:33:15;;;;;;;3.90;3.50;;;;;;;31.58;63.37;98039.16;1224205;75;2918053;-66
2023/07/18 10:35:52;;;;;;;6.65;3.65;;;;;;;31.38;62.60;98039.34;1223885;75;2922519;-70
2023/07/18 10:38:25;;;;;;;3.90;3.50;;;;;;;30.43;64.38;98033.91;1223868;75;2929279;-68
2023/07/18 10:40:57;;;;;;;4.30;3.50;;;;;;;30.21;66.05;98033.13;1223362;75;2931526;-67
2023/07/18 10:43:34;;;;;;;5.60;3.90;;;;;;;29.94;65.08;98029.25;1223716;75;2932410;-66
2023/07/18 10:46:09;;;;;;;4.90;3.85;;;;;;;30.34;62.38;98027.72;1224413;75;2921651;-69
2023/07/18 10:48:41;;;;;;;5.00;3.65;;;;;;;30.30;62.62;98021.78;1223851;75;2925088;-69
2023/07/18 10:51:17;;;;;;;5.20;3.90;;;;;;;30.39;63.97;98017.44;1223601;75;2927905;-70
2023/07/18 10:53:56;;;;;;;6.05;3.75;;;;;;;30.44;66.21;98024.09;1223803;75;2929872;-69
2023/07/18 10:56:29;;;;;;;4.65;3.65;;;;;;;30.36;66.76;98016.56;1223668;75;2927736;-69
2023/07/18 10:59:05;;;;;;;4.15;3.70;;;;;;;30.91;62.36;98007.38;1224230;75;2925721;-66
2023/07/18 11:01:37;;;;;;;3.90;3.25;;;;;;;31.34;60.78;98004.41;1223548;75;2922808;-68
2023/07/18 11:04:10;;;;;;;4.20;3.30;;;;;;;31.61;61.63;97999.06;1223014;75;2942093;-66
2023/07/18 11:06:52;;;;;;;5.05;3.55;;;;;;;31.11;60.29;98005.84;1223878;75;2919497;-67
2023/07/18 11:09:25;;;;;;;4.05;3.45;;;;;;;31.42;57.98;97996.47;1224070;75;2919702;-67
2023/07/18 11:11:58;;;;;;;4.90;3.60;;;;;;;30.55;60.98;97998.00;1223687;75;2923377;-68
2023/07/18 11:14:40;;;;;;;4.60;3.40;;;;;;;31.26;59.23;97986.94;1223876;75;2924872;-70
2023/07/18 11:17:16;;;;;;;3.40;3.10;;;;;;;31.02;57.78;97986.88;1223542;75;2926745;-69
2023/07/18 11:19:51;;;;;;;3.45;3.10;;;;;;;31.20;58.57;97979.53;1223141;75;2923302;-68
2023/07/18 11:22:27;;;;;;;5.00;3.35;;;;;;;31.21;57.75;97977.44;1224013;75;2915827;-70
2023/07/18 11:25:05;;;;;;;6.10;3.80;;;;;;;31.30;56.74;97984.34;1224075;75;2918410;-67
2023/07/18 11:27:39;;;;;;;4.00;2.90;;;;;;;32.23;55.02;97977.97;1224118;75;2921324;-67
2023/07/18 11:30:13;;;;;;;4.15;3.55;;;;;;;31.71;56.62;97964.97;1223913;75;2928695;-67
2023/07/18 11:32:47;;;;;;;3.85;3.10;;;;;;;31.90;55.71;97968.91;1224486;75;2932362;-70
2023/07/18 11:35:24;;;;;;;4.70;3.60;;;;;;;31.63;56.50;97970.16;1224164;75;2924849;-69
2023/07/18 11:37:59;;;;;;;5.30;3.30;;;;;;;31.17;57.39;97965.88;1224086;75;2934029;-69
2023/07/18 11:40:35;;;;;;;3.75;3.30;;;;;;;31.62;55.99;97960.16;1223921;75;2925151;-67